Schedule -- Season 72
Date/Time Away team Status Home team
4/30/2026 11:55:00 AM 9481 Passatempese 14030 Andrano Basket SC
5/2/2026 11:55:00 AM Andrano Basket boxscore
5/5/2026 11:55:00 AM 3 Arezzo Wave 1 Andrano Basket
5/6/2026 8:00:00 PM 13875 Andrano Basket 14382 FlowBingo BBM
5/7/2026 11:55:00 AM csptbo 1144 Andrano Basket C
5/9/2026 11:55:00 AM 4 Andrano Basket 7 Buzzertigers
5/12/2026 11:55:00 AM 6 the best 4 Andrano Basket TV
5/13/2026 2:00:00 PM 13784 Andrano Basket 14069 Bellvitge C.B. BBM
5/14/2026 11:55:00 AM 1133 Andrano Basket 713 They Reminisce Over You C
5/16/2026 11:55:00 AM 3 Eldo Jericho 4 Andrano Basket
5/19/2026 11:55:00 AM 4 Andrano Basket 2 Romanord 2012
5/23/2026 11:55:00 AM 8 Malarlevati Perugia 4 Andrano Basket
5/26/2026 11:55:00 AM 4 Andrano Basket 6 Venezia Shabows
5/30/2026 11:55:00 AM 1 Oklahoma Mily Thunder 4 Andrano Basket
6/2/2026 11:55:00 AM 4 Andrano Basket 3 Fuse Salina Isola
6/6/2026 11:55:00 AM 2 KK Glen Johnson 4 Andrano Basket
6/9/2026 11:55:00 AM 4 Andrano Basket 5 Olimpia 1936 Milano
6/13/2026 11:55:00 AM 8 PSG 4 Andrano Basket
6/17/2026 11:55:00 AM Big 8 Great 8
6/20/2026 11:55:00 AM 4 Andrano Basket 7 Berta Filava TV
6/23/2026 11:55:00 AM 4 2much4you 4 Andrano Basket
6/27/2026 11:55:00 AM 5 boxscore 4 Andrano Basket
6/30/2026 11:55:00 AM 4 Andrano Basket 1 Arezzo Wave
7/4/2026 11:55:00 AM 7 Buzzertigers 4 Andrano Basket
7/7/2026 11:55:00 AM 4 Andrano Basket 6 the best
7/11/2026 11:55:00 AM 4 Andrano Basket 3 Eldo Jericho
7/14/2026 11:55:00 AM 2 Romanord 2012 4 Andrano Basket
7/18/2026 11:55:00 AM 4 Andrano Basket 8 Malarlevati Perugia TV
SC: Scrimmage C: Cup TV: Televised BBM: BuzzerBeater Madness
Advertisement